createdAt,value
2023-02-19T00:00:28.939Z,96083.34
2023-02-19T00:03:15.442Z,96085.75
2023-02-19T00:06:03.319Z,96084.16
2023-02-19T00:08:49.512Z,96078.22
2023-02-19T00:11:36.059Z,96079.84
2023-02-19T00:14:22.151Z,96074.44
2023-02-19T00:17:07.843Z,96066.41
2023-02-19T00:19:53.338Z,96059.41
2023-02-19T00:22:39.473Z,96066.38
2023-02-19T00:25:25.561Z,96061.00
2023-02-19T00:28:11.395Z,96059.38
2023-02-19T00:31:05.888Z,96059.91
2023-02-19T00:33:55.039Z,96055.59
2023-02-19T00:36:42.218Z,96066.28
2023-02-19T00:39:28.279Z,96074.81
2023-02-19T00:42:14.032Z,96070.50
2023-02-19T00:44:59.744Z,96067.75
2023-02-19T00:47:45.444Z,96056.38
2023-02-19T00:50:31.360Z,96064.63
2023-02-19T00:53:17.234Z,96053.59
2023-02-19T00:56:02.868Z,96056.25
2023-02-19T00:58:48.930Z,96050.03
2023-02-19T01:01:34.976Z,96060.75
2023-02-19T01:04:20.739Z,96058.31
2023-02-19T01:07:07.050Z,96056.38
2023-02-19T01:09:55.413Z,96060.00
2023-02-19T01:12:41.037Z,96044.69
2023-02-19T01:15:27.100Z,96051.84
2023-02-19T01:18:12.913Z,96045.69
2023-02-19T01:20:59.259Z,96046.75
2023-02-19T01:23:45.285Z,96037.63
2023-02-19T01:26:32.271Z,96038.72
2023-02-19T01:29:18.349Z,96051.53
2023-02-19T01:32:04.308Z,96041.31
2023-02-19T01:34:50.705Z,96051.69
2023-02-19T01:37:37.314Z,96048.06
2023-02-19T01:40:23.486Z,96052.31
2023-02-19T01:43:16.209Z,96048.84
2023-02-19T01:46:02.090Z,96059.28
2023-02-19T01:48:47.825Z,96059.28
2023-02-19T01:51:34.484Z,96059.28
2023-02-19T01:54:22.628Z,96060.38
2023-02-19T01:57:13.756Z,96053.47
2023-02-19T02:00:05.019Z,96045.44
2023-02-19T02:02:58.809Z,96052.41
2023-02-19T02:05:50.593Z,96048.06
2023-02-19T02:08:55.861Z,96048.03
2023-02-19T02:11:49.219Z,96042.31
2023-02-19T02:14:38.162Z,96047.38
2023-02-19T02:17:32.138Z,96061.78
2023-02-19T02:20:55.249Z,96054.50
2023-02-19T02:23:53.329Z,96047.56
2023-02-19T02:27:01.255Z,96048.34
2023-02-19T02:30:06.549Z,96043.00
2023-02-19T02:33:19.787Z,96047.56
2023-02-19T02:36:09.429Z,96046.75
2023-02-19T02:38:58.397Z,96048.34
2023-02-19T02:41:49.057Z,96056.91
2023-02-19T02:44:42.164Z,96062.75
2023-02-19T02:47:45.018Z,96060.88
2023-02-19T02:50:37.040Z,96064.59
2023-02-19T02:54:00.406Z,96067.53
2023-02-19T02:56:48.363Z,96068.91
2023-02-19T02:59:37.707Z,96077.16
2023-02-19T03:02:26.796Z,96069.63
2023-02-19T03:05:36.613Z,96066.44
2023-02-19T03:08:25.430Z,96067.50
2023-02-19T03:11:30.417Z,96063.69
2023-02-19T03:14:40.651Z,96070.34
2023-02-19T03:18:15.969Z,96070.53
2023-02-19T03:21:04.415Z,96066.19
2023-02-19T03:24:09.637Z,96066.97
2023-02-19T03:26:57.514Z,96069.84
2023-02-19T03:29:45.052Z,96075.94
2023-02-19T03:32:38.724Z,96076.47
2023-02-19T03:35:33.730Z,96082.28
2023-02-19T03:38:26.762Z,96081.41
2023-02-19T03:41:21.563Z,96088.94
2023-02-19T03:44:41.134Z,96098.50
2023-02-19T03:47:34.318Z,96094.69
2023-02-19T03:50:23.636Z,96089.84
2023-02-19T03:53:35.117Z,96099.97
2023-02-19T03:56:47.257Z,96104.00
2023-02-19T03:59:43.974Z,96099.47
2023-02-19T04:02:42.162Z,96095.19
2023-02-19T04:05:30.909Z,96102.16
2023-02-19T04:08:19.438Z,96097.84
2023-02-19T04:11:12.194Z,96101.59
2023-02-19T04:14:13.266Z,96113.56
2023-02-19T04:17:03.298Z,96109.53
2023-02-19T04:19:50.528Z,96103.06
2023-02-19T04:22:37.261Z,96100.59
2023-02-19T04:25:23.811Z,96114.97
2023-02-19T04:28:10.101Z,96105.13
2023-02-19T04:30:56.095Z,96106.16
2023-02-19T04:33:41.851Z,96111.50
2023-02-19T04:36:27.397Z,96096.28
2023-02-19T04:39:13.111Z,96108.25
2023-02-19T04:41:58.780Z,96106.66
2023-02-19T04:44:44.519Z,96096.16
2023-02-19T04:47:32.185Z,96100.16
2023-02-19T04:50:18.243Z,96112.00
2023-02-19T04:53:04.105Z,96105.50
2023-02-19T04:55:53.223Z,96104.41
2023-02-19T04:58:39.689Z,96101.72
2023-02-19T05:01:25.660Z,96103.34
2023-02-19T05:04:11.571Z,96115.06
2023-02-19T05:06:57.399Z,96108.44
2023-02-19T05:09:42.957Z,96119.94
2023-02-19T05:12:31.117Z,96121.22
2023-02-19T05:15:17.010Z,96122.03
2023-02-19T05:18:03.185Z,96110.22
2023-02-19T05:20:50.712Z,96114.50
2023-02-19T05:23:36.941Z,96109.06
2023-02-19T05:26:24.237Z,96113.63
2023-02-19T05:29:10.324Z,96109.25
2023-02-19T05:31:57.203Z,96111.59
2023-02-19T05:34:42.904Z,96119.88
2023-02-19T05:37:28.971Z,96112.50
2023-02-19T05:40:14.840Z,96116.72
2023-02-19T05:43:00.446Z,96121.47
2023-02-19T05:45:46.086Z,96119.84
2023-02-19T05:48:32.573Z,96111.75
2023-02-19T05:51:21.716Z,96127.88
2023-02-19T05:54:07.838Z,96133.19
2023-02-19T05:56:53.737Z,96123.09
2023-02-19T05:59:39.723Z,96133.03
2023-02-19T06:02:25.412Z,96123.16
2023-02-19T06:05:11.514Z,96136.03
2023-02-19T06:07:57.329Z,96134.97
2023-02-19T06:10:43.685Z,96136.59
2023-02-19T06:13:29.700Z,96142.75
2023-02-19T06:16:17.607Z,96135.47
2023-02-19T06:19:04.164Z,96150.19
2023-02-19T06:21:50.834Z,96135.47
2023-02-19T06:24:37.852Z,96143.56
2023-02-19T06:27:24.026Z,96138.22
2023-02-19T06:30:10.773Z,96136.94
2023-02-19T06:32:57.913Z,96132.94
2023-02-19T06:35:43.611Z,96138.38
2023-02-19T06:38:29.438Z,96139.53
2023-02-19T06:41:15.793Z,96142.25
2023-02-19T06:44:02.034Z,96139.09
2023-02-19T06:46:48.126Z,96137.00
2023-02-19T06:49:33.710Z,96130.09
2023-02-19T06:52:19.655Z,96123.16
2023-02-19T06:55:09.097Z,96142.56
2023-02-19T06:57:54.846Z,96136.72
2023-02-19T07:00:40.368Z,96127.66
2023-02-19T07:03:29.590Z,96113.84
2023-02-19T07:06:15.600Z,96127.31
2023-02-19T07:09:01.924Z,96135.41
2023-02-19T07:11:48.015Z,96122.13
2023-02-19T07:14:33.788Z,96122.94
2023-02-19T07:17:19.794Z,96116.91
2023-02-19T07:20:05.795Z,96115.59
2023-02-19T07:22:51.467Z,96118.09
2023-02-19T07:25:38.153Z,96107.47
2023-02-19T07:28:24.169Z,96108.06
2023-02-19T07:31:10.626Z,96115.66
2023-02-19T07:33:56.691Z,96108.25
2023-02-19T07:36:42.511Z,96107.81
2023-02-19T07:39:28.419Z,96099.81
2023-02-19T07:42:14.253Z,96103.06
2023-02-19T07:45:00.726Z,96095.22
2023-02-19T07:47:46.672Z,96086.47
2023-02-19T07:50:32.469Z,96083.06
2023-02-19T07:53:18.836Z,96081.03
2023-02-19T07:56:06.808Z,96085.41
2023-02-19T07:58:52.989Z,96059.19
2023-02-19T08:01:57.503Z,96056.66
2023-02-19T08:04:43.585Z,96065.38
2023-02-19T08:07:39.557Z,96068.66
2023-02-19T08:10:44.373Z,96068.75
2023-02-19T08:13:30.929Z,96062.44
2023-02-19T08:16:29.658Z,96052.84
2023-02-19T08:19:23.351Z,96063.38
2023-02-19T08:22:09.373Z,96059.91
2023-02-19T08:24:55.073Z,96052.44
2023-02-19T08:27:40.930Z,96045.19
2023-02-19T08:30:31.351Z,96043.34
2023-02-19T08:33:19.707Z,96036.59
2023-02-19T08:36:07.052Z,96039.56
2023-02-19T08:38:52.945Z,96028.25
2023-02-19T08:41:38.715Z,96024.75
2023-02-19T08:44:26.360Z,96028.75
2023-02-19T08:47:12.459Z,96014.78
2023-02-19T08:49:58.197Z,96012.53
2023-02-19T08:52:43.989Z,96000.09
2023-02-19T08:55:30.167Z,95995.13
2023-02-19T08:58:16.059Z,96005.19
2023-02-19T09:01:01.896Z,96006.38
2023-02-19T09:03:47.866Z,95998.88
2023-02-19T09:06:33.888Z,96000.81
2023-02-19T09:09:19.958Z,96007.34
2023-02-19T09:12:07.476Z,95992.91
2023-02-19T09:14:53.075Z,95995.59
2023-02-19T09:17:38.951Z,95997.81
2023-02-19T09:20:25.427Z,95999.75
2023-02-19T09:23:11.568Z,95991.41
2023-02-19T09:26:00.221Z,95979.09
2023-02-19T09:28:46.009Z,95984.97
2023-02-19T09:31:32.667Z,95983.03
2023-02-19T09:34:18.307Z,95988.75
2023-02-19T09:37:03.982Z,95973.84
2023-02-19T09:39:49.561Z,95972.28
2023-02-19T09:42:35.667Z,95958.19
2023-02-19T09:45:26.356Z,95966.09
2023-02-19T09:48:12.608Z,95964.97
2023-02-19T09:50:59.649Z,95958.16
2023-02-19T09:53:48.166Z,95944.91
2023-02-19T09:56:34.723Z,95943.28
2023-02-19T09:59:42.470Z,95948.72
2023-02-19T10:02:30.855Z,95944.03
2023-02-19T10:05:17.211Z,95941.47
2023-02-19T10:08:05.632Z,95942.41
2023-02-19T10:10:53.544Z,95937.22
2023-02-19T10:13:53.786Z,95929.19
2023-02-19T10:16:40.984Z,95923.66
2023-02-19T10:19:27.175Z,95914.31
2023-02-19T10:22:13.607Z,95916.44
2023-02-19T10:24:59.698Z,95919.31
2023-02-19T10:27:46.506Z,95908.38
2023-02-19T10:30:34.229Z,95904.44
2023-02-19T10:33:22.009Z,95896.50
2023-02-19T10:36:21.287Z,95890.28
2023-02-19T10:39:22.548Z,95879.56
2023-02-19T10:42:15.963Z,95884.38
2023-02-19T10:45:02.910Z,95878.13
2023-02-19T10:47:49.586Z,95875.75
2023-02-19T10:50:47.140Z,95862.97
2023-02-19T10:53:42.669Z,95853.34
2023-02-19T10:56:31.424Z,95848.38
2023-02-19T10:59:28.378Z,95846.63
2023-02-19T11:02:19.055Z,95839.09
2023-02-19T11:05:16.774Z,95826.47
2023-02-19T11:08:02.550Z,95829.47
2023-02-19T11:10:48.583Z,95819.31
2023-02-19T11:13:38.062Z,95809.28
2023-02-19T11:16:25.186Z,95809.34
2023-02-19T11:19:26.486Z,95809.09
2023-02-19T11:22:32.869Z,95808.91
2023-02-19T11:25:21.714Z,95796.41
2023-02-19T11:28:20.667Z,95776.72
2023-02-19T11:31:19.367Z,95791.50
2023-02-19T11:34:14.429Z,95777.63
2023-02-19T11:37:12.223Z,95777.91
2023-02-19T11:39:58.075Z,95767.91
2023-02-19T11:43:07.785Z,95761.97
2023-02-19T11:46:17.239Z,95770.63
2023-02-19T11:49:24.656Z,95765.09
2023-02-19T11:52:29.516Z,95756.78
2023-02-19T11:55:36.260Z,95752.63
2023-02-19T11:59:00.897Z,95754.81
2023-02-19T12:01:53.339Z,95741.94
2023-02-19T12:05:19.062Z,95733.19
2023-02-19T12:08:26.088Z,95741.50
2023-02-19T12:11:38.240Z,95729.78
2023-02-19T12:14:46.877Z,95724.97
2023-02-19T12:17:54.023Z,95723.91
2023-02-19T12:21:13.624Z,95723.47
2023-02-19T12:24:09.479Z,95723.91
2023-02-19T12:27:33.947Z,95715.72
2023-02-19T12:30:51.576Z,95694.13
2023-02-19T12:33:40.610Z,95685.88
2023-02-19T12:37:00.221Z,95688.59
2023-02-19T12:39:52.358Z,95670.84
2023-02-19T12:42:56.953Z,95677.19
2023-02-19T12:45:45.548Z,95662.81
2023-02-19T12:49:00.200Z,95657.00
2023-02-19T12:51:55.283Z,95649.66
2023-02-19T12:54:44.282Z,95641.53
2023-02-19T12:57:35.134Z,95648.63
2023-02-19T13:00:41.098Z,95649.09
2023-02-19T13:03:49.420Z,95648.25
2023-02-19T13:06:50.793Z,95645.50
2023-02-19T13:09:47.075Z,95638.50
2023-02-19T13:12:41.632Z,95630.31
2023-02-19T13:15:35.621Z,95620.19
2023-02-19T13:18:25.891Z,95622.66
2023-02-19T13:21:13.542Z,95621.28
2023-02-19T13:24:12.150Z,95612.88
2023-02-19T13:27:42.255Z,95607.63
2023-02-19T13:30:43.235Z,95613.25
2023-02-19T13:33:54.780Z,95607.06
2023-02-19T13:36:41.879Z,95588.16
2023-02-19T13:39:29.257Z,95586.97
2023-02-19T13:42:41.617Z,95587.69
2023-02-19T13:45:41.140Z,95593.47
2023-02-19T13:48:32.981Z,95591.66
2023-02-19T13:51:29.716Z,95592.56
2023-02-19T13:54:22.777Z,95590.19
2023-02-19T13:57:24.073Z,95601.66
2023-02-19T14:00:49.298Z,95595.59
2023-02-19T14:03:55.553Z,95601.88
2023-02-19T14:07:07.646Z,95586.69
2023-02-19T14:09:55.241Z,95583.69
2023-02-19T14:12:41.231Z,95577.91
2023-02-19T14:15:53.395Z,95585.44
2023-02-19T14:18:45.699Z,95581.47
2023-02-19T14:21:36.800Z,95584.53
2023-02-19T14:24:23.591Z,95580.50
2023-02-19T14:27:09.532Z,95577.75
2023-02-19T14:29:55.783Z,95577.22
2023-02-19T14:32:43.630Z,95570.88
2023-02-19T14:36:14.506Z,95587.66
2023-02-19T14:39:11.567Z,95585.22
2023-02-19T14:42:00.271Z,95572.66
2023-02-19T14:44:52.924Z,95582.19
2023-02-19T14:47:38.709Z,95572.66
2023-02-19T14:50:36.534Z,95572.63
2023-02-19T14:53:23.605Z,95575.63
2023-02-19T14:56:25.136Z,95577.91
2023-02-19T14:59:13.848Z,95574.72
2023-02-19T15:02:02.189Z,95575.59
2023-02-19T15:04:48.477Z,95573.38
2023-02-19T15:07:34.413Z,95572.78
2023-02-19T15:10:20.608Z,95589.00
2023-02-19T15:13:08.450Z,95575.44
2023-02-19T15:15:55.492Z,95582.56
2023-02-19T15:18:46.347Z,95586.44
2023-02-19T15:21:32.947Z,95578.03
2023-02-19T15:24:19.350Z,95571.91
2023-02-19T15:27:05.399Z,95580.28
2023-02-19T15:29:53.685Z,95577.78
2023-02-19T15:32:40.985Z,95591.13
2023-02-19T15:35:28.095Z,95582.63
2023-02-19T15:38:13.775Z,95589.84
2023-02-19T15:40:59.843Z,95596.22
2023-02-19T15:44:09.839Z,95585.66
2023-02-19T15:46:56.329Z,95601.13
2023-02-19T15:49:51.772Z,95606.66
2023-02-19T15:52:48.549Z,95602.91
2023-02-19T15:55:46.785Z,95605.22
2023-02-19T15:58:47.447Z,95614.50
2023-02-19T16:01:36.618Z,95616.34
2023-02-19T16:04:22.578Z,95617.94
2023-02-19T16:07:23.595Z,95627.25
2023-02-19T16:10:22.880Z,95633.19
2023-02-19T16:13:11.988Z,95637.19
2023-02-19T16:16:17.105Z,95643.44
2023-02-19T16:19:02.932Z,95643.16
2023-02-19T16:21:48.660Z,95626.72
2023-02-19T16:24:46.877Z,95630.06
2023-02-19T16:27:39.244Z,95646.19
2023-02-19T16:30:31.594Z,95635.97
2023-02-19T16:33:36.429Z,95660.56
2023-02-19T16:36:36.095Z,95663.91
2023-02-19T16:39:23.406Z,95661.50
2023-02-19T16:42:12.612Z,95668.69
2023-02-19T16:44:58.206Z,95665.16
2023-02-19T16:47:51.354Z,95682.06
2023-02-19T16:50:41.407Z,95691.97
2023-02-19T16:53:28.912Z,95687.81
2023-02-19T16:56:18.596Z,95696.72
2023-02-19T16:59:05.234Z,95714.59
2023-02-19T17:01:50.793Z,95710.25
2023-02-19T17:04:36.552Z,95719.50
2023-02-19T17:07:22.832Z,95711.50
2023-02-19T17:10:11.410Z,95723.44
2023-02-19T17:12:57.212Z,95735.06
2023-02-19T17:15:43.177Z,95744.59
2023-02-19T17:18:30.077Z,95754.31
2023-02-19T17:21:21.852Z,95746.94
2023-02-19T17:24:07.993Z,95745.34
2023-02-19T17:26:53.976Z,95747.56
2023-02-19T17:29:40.814Z,95748.97
2023-02-19T17:32:26.910Z,95754.69
2023-02-19T17:35:13.441Z,95766.63
2023-02-19T17:37:59.783Z,95769.34
2023-02-19T17:40:45.837Z,95766.47
2023-02-19T17:43:31.856Z,95772.06
2023-02-19T17:46:19.289Z,95781.31
2023-02-19T17:49:05.410Z,95781.94
2023-02-19T17:51:51.297Z,95784.25
2023-02-19T17:54:37.202Z,95795.19
2023-02-19T17:57:22.900Z,95804.44
2023-02-19T18:00:09.271Z,95803.28
2023-02-19T18:02:59.311Z,95807.09
2023-02-19T18:05:45.629Z,95815.63
2023-02-19T18:08:31.770Z,95811.16
2023-02-19T18:11:18.316Z,95829.41
2023-02-19T18:14:03.906Z,95833.22
2023-02-19T18:16:50.825Z,95839.84
2023-02-19T18:19:37.178Z,95843.97
2023-02-19T18:22:24.005Z,95844.09
2023-02-19T18:25:10.501Z,95852.03
2023-02-19T18:27:56.619Z,95855.94
2023-02-19T18:30:42.675Z,95858.16
2023-02-19T18:33:28.713Z,95851.75
2023-02-19T18:36:14.996Z,95852.97
2023-02-19T18:39:01.049Z,95858.16
2023-02-19T18:41:49.055Z,95862.56
2023-02-19T18:44:35.206Z,95859.19
2023-02-19T18:47:22.095Z,95862.50
2023-02-19T18:50:09.921Z,95872.31
2023-02-19T18:53:00.664Z,95870.22
2023-02-19T18:55:46.712Z,95876.81
2023-02-19T18:58:32.710Z,95880.22
2023-02-19T19:01:21.386Z,95884.63
2023-02-19T19:04:07.462Z,95896.66
2023-02-19T19:06:53.442Z,95904.84
2023-02-19T19:09:39.121Z,95922.19
2023-02-19T19:12:24.922Z,95922.28
2023-02-19T19:15:10.826Z,95924.56
2023-02-19T19:17:56.650Z,95927.84
2023-02-19T19:20:42.451Z,95927.84
2023-02-19T19:23:28.181Z,95934.34
2023-02-19T19:26:14.730Z,95933.56
2023-02-19T19:29:00.683Z,95933.31
2023-02-19T19:31:46.915Z,95916.09
2023-02-19T19:34:32.944Z,95930.78
2023-02-19T19:37:18.689Z,95938.19
2023-02-19T19:40:04.904Z,95933.13
2023-02-19T19:42:52.255Z,95942.13
2023-02-19T19:45:38.685Z,95944.72
2023-02-19T19:48:27.542Z,95943.47
2023-02-19T19:51:13.778Z,95944.41
2023-02-19T19:54:01.231Z,95946.09
2023-02-19T19:56:47.727Z,95952.16
2023-02-19T19:59:33.791Z,95949.09
2023-02-19T20:02:19.923Z,95944.44
2023-02-19T20:05:06.647Z,95953.91
2023-02-19T20:07:54.335Z,95960.72
2023-02-19T20:10:43.431Z,95961.22
2023-02-19T20:13:31.047Z,95972.38
2023-02-19T20:16:16.837Z,95970.28
2023-02-19T20:19:02.921Z,95973.88
2023-02-19T20:21:51.746Z,95967.16
2023-02-19T20:24:38.409Z,95978.56
2023-02-19T20:27:24.713Z,95992.09
2023-02-19T20:30:15.855Z,95972.72
2023-02-19T20:33:02.458Z,95978.72
2023-02-19T20:35:48.542Z,95990.53
2023-02-19T20:38:35.322Z,95981.13
2023-02-19T20:41:21.324Z,95985.16
2023-02-19T20:44:09.621Z,95984.09
2023-02-19T20:46:58.144Z,95986.31
2023-02-19T20:49:46.465Z,95984.69
2023-02-19T20:52:32.515Z,95995.22
2023-02-19T20:55:19.383Z,96000.38
2023-02-19T20:58:05.381Z,96009.00
2023-02-19T21:00:53.592Z,96010.59
2023-02-19T21:03:39.621Z,96007.38
2023-02-19T21:06:26.366Z,96011.16
2023-02-19T21:09:12.790Z,96006.06
2023-02-19T21:12:00.038Z,96008.53
2023-02-19T21:14:49.165Z,96011.50
2023-02-19T21:17:35.831Z,96013.09
2023-02-19T21:20:21.929Z,96021.47
2023-02-19T21:23:08.834Z,96013.44
2023-02-19T21:25:56.817Z,96019.94
2023-02-19T21:28:43.263Z,96025.88
2023-02-19T21:31:59.938Z,96022.75
2023-02-19T21:34:45.706Z,96026.25
2023-02-19T21:37:41.206Z,96023.88
2023-02-19T21:40:29.070Z,96024.69
2023-02-19T21:43:15.612Z,96018.03
2023-02-19T21:46:01.392Z,96016.72
2023-02-19T21:48:51.636Z,96017.28
2023-02-19T21:51:41.107Z,96028.28
2023-02-19T21:54:26.868Z,96032.06
2023-02-19T21:57:12.754Z,96028.06
2023-02-19T21:59:58.601Z,96030.22
2023-02-19T22:02:44.637Z,96037.50
2023-02-19T22:05:30.937Z,96051.78
2023-02-19T22:08:17.570Z,96042.94
2023-02-19T22:11:04.103Z,96049.94
2023-02-19T22:13:50.508Z,96052.13
2023-02-19T22:16:36.335Z,96048.66
2023-02-19T22:19:22.261Z,96047.34
2023-02-19T22:22:08.121Z,96048.97
2023-02-19T22:24:53.946Z,96054.38
2023-02-19T22:27:40.092Z,96046.56
2023-02-19T22:30:26.210Z,96054.38
2023-02-19T22:33:11.997Z,96065.97
2023-02-19T22:35:57.687Z,96067.34
2023-02-19T22:38:43.771Z,96074.34
2023-02-19T22:41:30.134Z,96073.78
2023-02-19T22:44:16.246Z,96063.06
2023-02-19T22:47:02.101Z,96079.22
2023-02-19T22:49:48.436Z,96079.75
2023-02-19T22:52:36.832Z,96074.13
2023-02-19T22:55:22.753Z,96075.47
2023-02-19T22:58:08.661Z,96086.78
2023-02-19T23:00:55.386Z,96079.81
2023-02-19T23:03:52.949Z,96086.28
2023-02-19T23:06:42.973Z,96083.56
2023-02-19T23:09:30.172Z,96080.09
2023-02-19T23:12:16.216Z,96080.63
2023-02-19T23:15:02.411Z,96078.72
2023-02-19T23:17:48.675Z,96081.69
2023-02-19T23:20:35.786Z,96077.16
2023-02-19T23:23:21.835Z,96079.53
2023-02-19T23:26:07.653Z,96089.50
2023-02-19T23:28:53.513Z,96085.22
2023-02-19T23:31:39.616Z,96088.72
2023-02-19T23:34:29.937Z,96104.84
2023-02-19T23:37:19.769Z,96105.13
2023-02-19T23:40:05.804Z,96107.25
2023-02-19T23:42:52.601Z,96112.38
2023-02-19T23:45:38.216Z,96109.69
2023-02-19T23:48:24.827Z,96106.19
2023-02-19T23:51:10.440Z,96096.50
2023-02-19T23:53:56.200Z,96102.16
2023-02-19T23:56:41.985Z,96110.50
2023-02-19T23:59:27.642Z,96111.03
